createdAt,value
2018-07-26T00:01:38.732Z,100767.52
2018-07-26T00:04:07.870Z,100772.13
2018-07-26T00:06:37.018Z,100764.64
2018-07-26T00:09:09.030Z,100762.08
2018-07-26T00:11:38.282Z,100749.64
2018-07-26T00:14:07.416Z,100748.53
2018-07-26T00:16:36.542Z,100749.30
2018-07-26T00:19:05.654Z,100757.12
2018-07-26T00:21:34.765Z,100759.49
2018-07-26T00:24:03.870Z,100773.44
2018-07-26T00:26:32.993Z,100766.08
2018-07-26T00:29:02.102Z,100765.30
2018-07-26T00:31:31.233Z,100772.98
2018-07-26T00:34:00.338Z,100774.20
2018-07-26T00:36:29.443Z,100771.19
2018-07-26T00:38:58.600Z,100770.10
2018-07-26T00:41:27.766Z,100768.35
2018-07-26T00:43:56.905Z,100774.02
2018-07-26T00:46:26.047Z,100770.36
2018-07-26T00:48:55.165Z,100768.35
2018-07-26T00:51:24.287Z,100773.40
2018-07-26T00:53:53.429Z,100770.07
2018-07-26T00:56:22.617Z,100765.52
2018-07-26T00:58:51.729Z,100775.50
2018-07-26T01:01:20.880Z,100775.03
2018-07-26T01:03:49.986Z,100780.80
2018-07-26T01:06:19.199Z,100788.42
2018-07-26T01:08:48.335Z,100789.52
2018-07-26T01:11:17.512Z,100786.48
2018-07-26T01:13:46.646Z,100784.86
2018-07-26T01:16:15.949Z,100782.14
2018-07-26T01:18:45.058Z,100784.90
2018-07-26T01:21:14.233Z,100783.26
2018-07-26T01:23:43.358Z,100780.95
2018-07-26T01:26:12.478Z,100786.73
2018-07-26T01:28:41.697Z,100785.45
2018-07-26T01:31:11.507Z,100781.88
2018-07-26T01:33:40.677Z,100782.58
2018-07-26T01:36:09.798Z,100777.14
2018-07-26T01:38:38.942Z,100780.99
2018-07-26T01:41:08.117Z,100785.81
2018-07-26T01:43:50.157Z,100777.02
2018-07-26T01:46:21.350Z,100774.52
2018-07-26T01:48:50.462Z,100776.78
2018-07-26T01:51:19.647Z,100777.75
2018-07-26T01:53:48.819Z,100773.48
2018-07-26T01:56:17.957Z,100779.92
2018-07-26T01:58:47.069Z,100772.15
2018-07-26T02:01:16.199Z,100774.44
2018-07-26T02:03:45.318Z,100780.05
2018-07-26T02:06:14.447Z,100780.34
2018-07-26T02:08:43.585Z,100775.63
2018-07-26T02:11:12.706Z,100779.66
2018-07-26T02:13:41.862Z,100772.25
2018-07-26T02:16:11.062Z,100776.55
2018-07-26T02:18:40.256Z,100766.61
2018-07-26T02:21:09.406Z,100778.25
2018-07-26T02:23:38.555Z,100782.63
2018-07-26T02:26:07.674Z,100777.65
2018-07-26T02:28:36.866Z,100779.06
2018-07-26T02:31:06.074Z,100768.38
2018-07-26T02:33:35.170Z,100771.69
2018-07-26T02:36:04.307Z,100771.69
2018-07-26T02:38:33.418Z,100777.75
2018-07-26T02:41:02.570Z,100771.65
2018-07-26T02:43:31.701Z,100776.85
2018-07-26T02:46:00.818Z,100776.66
2018-07-26T02:48:29.929Z,100776.18
2018-07-26T02:50:59.057Z,100772.59
2018-07-26T02:53:28.233Z,100770.23
2018-07-26T02:55:57.377Z,100771.88
2018-07-26T02:58:26.576Z,100779.99
2018-07-26T03:00:55.697Z,100779.06
2018-07-26T03:03:24.877Z,100773.04
2018-07-26T03:05:53.984Z,100777.73
2018-07-26T03:08:23.178Z,100774.06
2018-07-26T03:10:52.654Z,100779.59
2018-07-26T03:13:21.833Z,100775.09
2018-07-26T03:15:50.930Z,100772.73
2018-07-26T03:18:20.070Z,100771.36
2018-07-26T03:20:49.258Z,100778.43
2018-07-26T03:23:18.390Z,100776.58
2018-07-26T03:25:47.469Z,100783.58
2018-07-26T03:28:16.630Z,100786.62
2018-07-26T03:30:45.741Z,100783.20
2018-07-26T03:33:14.849Z,100781.29
2018-07-26T03:35:44.070Z,100785.98
2018-07-26T03:38:13.265Z,100789.17
2018-07-26T03:40:42.458Z,100784.83
2018-07-26T03:43:11.601Z,100791.86
2018-07-26T03:45:40.721Z,100791.81
2018-07-26T03:48:09.841Z,100787.73
2018-07-26T03:50:38.979Z,100794.74
2018-07-26T03:53:08.099Z,100797.13
2018-07-26T03:55:37.269Z,100797.44
2018-07-26T03:58:13.758Z,100798.15
2018-07-26T04:00:42.889Z,100801.75
2018-07-26T04:03:12.070Z,100798.87
2018-07-26T04:05:41.159Z,100800.11
2018-07-26T04:08:10.314Z,100804.94
2018-07-26T04:10:39.444Z,100805.09
2018-07-26T04:13:08.575Z,100808.75
2018-07-26T04:15:37.709Z,100799.41
2018-07-26T04:18:07.296Z,100803.77
2018-07-26T04:20:36.422Z,100797.92
2018-07-26T04:23:05.572Z,100801.28
2018-07-26T04:25:34.661Z,100801.82
2018-07-26T04:28:03.883Z,100804.56
2018-07-26T04:30:33.026Z,100795.48
2018-07-26T04:33:02.188Z,100796.05
2018-07-26T04:35:31.343Z,100797.61
2018-07-26T04:38:00.445Z,100799.47
2018-07-26T04:40:29.576Z,100790.13
2018-07-26T04:42:58.702Z,100800.34
2018-07-26T04:45:27.813Z,100791.14
2018-07-26T04:47:56.966Z,100790.60
2018-07-26T04:50:26.117Z,100787.02
2018-07-26T04:52:55.264Z,100789.00
2018-07-26T04:55:24.366Z,100784.58
2018-07-26T04:57:53.491Z,100793.59
2018-07-26T05:00:22.633Z,100787.55
2018-07-26T05:02:51.764Z,100788.86
2018-07-26T05:05:20.925Z,100789.11
2018-07-26T05:07:50.066Z,100790.97
2018-07-26T05:10:19.265Z,100792.76
2018-07-26T05:12:48.394Z,100791.52
2018-07-26T05:15:17.528Z,100799.09
2018-07-26T05:17:46.653Z,100798.39
2018-07-26T05:20:15.789Z,100797.05
2018-07-26T05:22:44.897Z,100794.62
2018-07-26T05:25:14.071Z,100800.95
2018-07-26T05:27:43.259Z,100804.13
2018-07-26T05:30:12.358Z,100798.73
2018-07-26T05:32:41.499Z,100802.58
2018-07-26T05:35:10.614Z,100806.23
2018-07-26T05:37:39.792Z,100797.30
2018-07-26T05:40:08.914Z,100803.24
2018-07-26T05:42:38.051Z,100804.10
2018-07-26T05:45:07.190Z,100795.52
2018-07-26T05:47:36.317Z,100800.53
2018-07-26T05:50:05.889Z,100801.86
2018-07-26T05:52:35.056Z,100808.02
2018-07-26T05:55:04.232Z,100805.43
2018-07-26T05:57:33.993Z,100806.69
2018-07-26T06:00:03.210Z,100815.41
2018-07-26T06:02:34.365Z,100812.05
2018-07-26T06:05:03.552Z,100807.90
2018-07-26T06:07:32.694Z,100816.86
2018-07-26T06:10:01.842Z,100812.41
2018-07-26T06:12:30.973Z,100820.55
2018-07-26T06:15:00.128Z,100819.61
2018-07-26T06:17:29.296Z,100821.23
2018-07-26T06:19:58.421Z,100816.05
2018-07-26T06:22:50.317Z,100824.29
2018-07-26T06:25:19.525Z,100824.92
2018-07-26T06:27:48.707Z,100822.56
2018-07-26T06:30:17.862Z,100817.59
2018-07-26T06:32:47.069Z,100817.87
2018-07-26T06:35:16.418Z,100816.70
2018-07-26T06:37:46.677Z,100819.94
2018-07-26T06:40:15.814Z,100816.20
2018-07-26T06:42:46.985Z,100809.56
2018-07-26T06:45:16.158Z,100809.67
2018-07-26T06:47:45.371Z,100809.09
2018-07-26T06:50:14.518Z,100814.15
2018-07-26T06:52:43.728Z,100812.38
2018-07-26T06:55:12.878Z,100814.09
2018-07-26T06:57:42.043Z,100811.14
2018-07-26T07:00:11.294Z,100806.71
2018-07-26T07:02:40.696Z,100810.20
2018-07-26T07:05:26.491Z,100799.75
2018-07-26T07:07:55.622Z,100799.53
2018-07-26T07:10:24.841Z,100806.88
2018-07-26T07:12:54.979Z,100799.28
2018-07-26T07:15:24.151Z,100794.16
2018-07-26T07:17:53.335Z,100790.09
2018-07-26T07:20:22.552Z,100790.48
2018-07-26T07:22:51.778Z,100800.40
2018-07-26T07:25:20.978Z,100795.84
2018-07-26T07:27:50.120Z,100794.33
2018-07-26T07:30:19.319Z,100798.15
2018-07-26T07:32:48.474Z,100792.86
2018-07-26T07:35:17.643Z,100790.95
2018-07-26T07:37:46.878Z,100796.49
2018-07-26T07:40:15.994Z,100790.85
2018-07-26T07:42:45.154Z,100788.40
2018-07-26T07:45:14.320Z,100792.37
2018-07-26T07:47:43.520Z,100789.54
2018-07-26T07:50:12.586Z,100795.38
2018-07-26T07:52:41.809Z,100790.14
2018-07-26T07:55:10.955Z,100783.20
2018-07-26T07:57:40.058Z,100787.47
2018-07-26T08:00:09.953Z,100785.17
2018-07-26T08:02:39.099Z,100777.44
2018-07-26T08:05:08.353Z,100779.44
2018-07-26T08:07:37.753Z,100772.37
2018-07-26T08:10:08.681Z,100777.95
2018-07-26T08:12:37.979Z,100773.04
2018-07-26T08:15:07.559Z,100775.85
2018-07-26T08:17:36.711Z,100777.78
2018-07-26T08:20:06.241Z,100777.55
2018-07-26T08:22:35.668Z,100779.19
2018-07-26T08:25:05.754Z,100778.95
2018-07-26T08:27:35.090Z,100774.69
2018-07-26T08:30:05.566Z,100777.33
2018-07-26T08:32:34.761Z,100776.09
2018-07-26T08:35:03.930Z,100776.23
2018-07-26T08:37:33.042Z,100768.30
2018-07-26T08:40:02.317Z,100774.88
2018-07-26T08:42:31.615Z,100773.36
2018-07-26T08:45:00.757Z,100774.48
2018-07-26T08:47:29.884Z,100769.63
2018-07-26T08:49:59.005Z,100772.95
2018-07-26T08:52:28.149Z,100767.62
2018-07-26T08:54:57.262Z,100769.84
2018-07-26T08:57:26.445Z,100766.85
2018-07-26T08:59:55.560Z,100766.88
2018-07-26T09:02:24.705Z,100768.59
2018-07-26T09:04:53.805Z,100771.95
2018-07-26T09:07:22.907Z,100763.99
2018-07-26T09:09:52.083Z,100763.05
2018-07-26T09:12:21.213Z,100766.76
2018-07-26T09:14:50.328Z,100762.30
2018-07-26T09:17:19.528Z,100766.62
2018-07-26T09:19:48.650Z,100762.32
2018-07-26T09:22:17.716Z,100760.16
2018-07-26T09:24:46.839Z,100757.34
2018-07-26T09:27:15.966Z,100758.56
2018-07-26T09:29:45.129Z,100759.33
2018-07-26T09:32:14.261Z,100758.55
2018-07-26T09:34:43.381Z,100752.48
2018-07-26T09:37:12.550Z,100754.52
2018-07-26T09:39:41.701Z,100746.31
2018-07-26T09:42:10.813Z,100747.52
2018-07-26T09:44:39.962Z,100745.13
2018-07-26T09:47:09.065Z,100745.67
2018-07-26T09:49:38.213Z,100739.81
2018-07-26T09:52:07.323Z,100732.33
2018-07-26T09:54:36.466Z,100736.23
2018-07-26T09:57:05.615Z,100729.63
2018-07-26T09:59:34.833Z,100733.98
2018-07-26T10:02:03.983Z,100731.38
2018-07-26T10:04:33.181Z,100734.98
2018-07-26T10:07:02.344Z,100725.30
2018-07-26T10:09:31.391Z,100726.16
2018-07-26T10:12:00.557Z,100726.81
2018-07-26T10:14:29.681Z,100723.73
2018-07-26T10:16:58.830Z,100720.14
2018-07-26T10:19:28.054Z,100723.19
2018-07-26T10:21:57.253Z,100698.67
2018-07-26T10:24:26.425Z,100711.31
2018-07-26T10:26:55.563Z,100711.64
2018-07-26T10:29:24.717Z,100700.66
2018-07-26T10:31:53.862Z,100706.29
2018-07-26T10:34:23.028Z,100710.66
2018-07-26T10:36:52.173Z,100700.09
2018-07-26T10:39:21.367Z,100702.20
2018-07-26T10:41:50.565Z,100696.62
2018-07-26T10:44:19.728Z,100701.52
2018-07-26T10:46:48.898Z,100695.09
2018-07-26T10:49:18.049Z,100692.80
2018-07-26T10:51:47.142Z,100696.09
2018-07-26T10:54:16.249Z,100699.33
2018-07-26T10:56:45.381Z,100692.41
2018-07-26T10:59:14.497Z,100690.83
2018-07-26T11:01:43.619Z,100684.06
2018-07-26T11:04:12.730Z,100690.55
2018-07-26T11:06:41.837Z,100689.05
2018-07-26T11:09:11.314Z,100685.17
2018-07-26T11:11:40.437Z,100689.20
2018-07-26T11:14:09.581Z,100693.33
2018-07-26T11:16:39.181Z,100687.84
2018-07-26T11:19:08.399Z,100687.56
2018-07-26T11:21:37.521Z,100683.89
2018-07-26T11:24:06.827Z,100685.55
2018-07-26T11:26:35.919Z,100680.41
2018-07-26T11:29:05.069Z,100665.47
2018-07-26T11:31:34.206Z,100675.40
2018-07-26T11:34:03.690Z,100676.91
2018-07-26T11:36:32.837Z,100678.49
2018-07-26T11:39:02.109Z,100677.55
2018-07-26T11:41:31.313Z,100684.09
2018-07-26T11:44:00.397Z,100675.98
2018-07-26T11:46:29.520Z,100674.50
2018-07-26T11:48:58.637Z,100670.27
2018-07-26T11:51:27.809Z,100671.98
2018-07-26T11:53:56.937Z,100664.34
2018-07-26T11:56:26.100Z,100652.22
2018-07-26T11:58:55.202Z,100652.45
2018-07-26T12:01:24.369Z,100653.73
2018-07-26T12:03:53.542Z,100649.66
2018-07-26T12:06:22.743Z,100652.60
2018-07-26T12:08:51.891Z,100646.18
2018-07-26T12:11:21.058Z,100639.58
2018-07-26T12:13:50.218Z,100640.25
2018-07-26T12:16:19.467Z,100636.44
2018-07-26T12:18:48.629Z,100632.12
2018-07-26T12:21:17.829Z,100622.64
2018-07-26T12:23:46.969Z,100624.41
2018-07-26T12:26:16.073Z,100619.73
2018-07-26T12:28:45.213Z,100613.94
2018-07-26T12:31:14.378Z,100616.58
2018-07-26T12:33:43.535Z,100617.41
2018-07-26T12:36:13.211Z,100604.84
2018-07-26T12:38:42.430Z,100606.13
2018-07-26T12:41:11.587Z,100595.42
2018-07-26T12:43:40.799Z,100596.34
2018-07-26T12:46:09.945Z,100595.06
2018-07-26T12:48:39.509Z,100585.95
2018-07-26T12:51:08.661Z,100589.67
2018-07-26T12:53:37.829Z,100581.97
2018-07-26T12:56:07.010Z,100583.36
2018-07-26T12:58:36.199Z,100584.02
2018-07-26T13:01:05.346Z,100580.56
2018-07-26T13:03:34.482Z,100586.72
2018-07-26T13:06:03.656Z,100571.36
2018-07-26T13:08:32.745Z,100574.09
2018-07-26T13:11:01.906Z,100577.62
2018-07-26T13:13:31.014Z,100580.48
2018-07-26T13:16:00.177Z,100575.63
2018-07-26T13:18:29.310Z,100577.75
2018-07-26T13:20:58.452Z,100576.83
2018-07-26T13:23:27.629Z,100576.55
2018-07-26T13:25:56.769Z,100573.86
2018-07-26T13:28:25.921Z,100567.32
2018-07-26T13:30:55.225Z,100564.77
2018-07-26T13:33:24.445Z,100559.71
2018-07-26T13:35:58.610Z,100563.42
2018-07-26T13:38:27.776Z,100560.84
2018-07-26T13:40:57.162Z,100550.87
2018-07-26T13:43:27.348Z,100553.55
2018-07-26T13:45:56.574Z,100552.35
2018-07-26T13:48:28.594Z,100554.22
2018-07-26T13:50:57.935Z,100546.78
2018-07-26T13:53:27.286Z,100550.64
2018-07-26T13:55:56.651Z,100551.64
2018-07-26T13:58:26.013Z,100547.53
2018-07-26T14:00:55.250Z,100559.48
2018-07-26T14:03:24.461Z,100563.59
2018-07-26T14:05:53.722Z,100556.78
2018-07-26T14:08:22.925Z,100546.86
2018-07-26T14:10:52.077Z,100550.33
2018-07-26T14:13:21.285Z,100537.81
2018-07-26T14:15:50.498Z,100540.81
2018-07-26T14:18:19.553Z,100542.51
2018-07-26T14:20:49.714Z,100542.81
2018-07-26T14:23:30.166Z,100540.96
2018-07-26T14:25:59.299Z,100538.14
2018-07-26T14:28:28.734Z,100540.66
2018-07-26T14:30:57.957Z,100534.38
2018-07-26T14:33:27.153Z,100532.36
2018-07-26T14:35:56.328Z,100524.91
2018-07-26T14:38:25.454Z,100518.46
2018-07-26T14:40:54.759Z,100520.16
2018-07-26T14:43:23.981Z,100517.69
2018-07-26T14:45:53.138Z,100516.21
2018-07-26T14:48:22.737Z,100508.94
2018-07-26T14:50:51.946Z,100504.57
2018-07-26T14:53:21.225Z,100509.78
2018-07-26T14:55:50.675Z,100518.47
2018-07-26T14:58:20.595Z,100508.50
2018-07-26T15:00:50.014Z,100513.73
2018-07-26T15:03:19.578Z,100510.75
2018-07-26T15:05:49.001Z,100512.64
2018-07-26T15:08:19.746Z,100506.53
2018-07-26T15:10:49.390Z,100512.63
2018-07-26T15:13:18.730Z,100512.45
2018-07-26T15:15:47.969Z,100510.67
2018-07-26T15:18:17.121Z,100501.87
2018-07-26T15:20:46.309Z,100503.56
2018-07-26T15:23:16.728Z,100508.32
2018-07-26T15:25:46.906Z,100496.47
2018-07-26T15:28:16.161Z,100504.40
2018-07-26T15:30:45.315Z,100498.48
2018-07-26T15:33:14.445Z,100492.41
2018-07-26T15:35:45.733Z,100492.77
2018-07-26T15:38:14.901Z,100486.41
2018-07-26T15:40:44.033Z,100486.73
2018-07-26T15:43:13.170Z,100488.57
2018-07-26T15:45:42.350Z,100482.83
2018-07-26T15:48:11.663Z,100475.70
2018-07-26T15:50:41.026Z,100475.72
2018-07-26T15:53:10.463Z,100476.78
2018-07-26T15:55:40.134Z,100474.58
2018-07-26T15:58:09.767Z,100476.12
2018-07-26T16:00:39.542Z,100476.47
2018-07-26T16:03:09.431Z,100469.02
2018-07-26T16:05:39.189Z,100476.14
2018-07-26T16:08:09.191Z,100478.88
2018-07-26T16:10:38.867Z,100472.12
2018-07-26T16:13:08.574Z,100470.27
2018-07-26T16:15:40.997Z,100469.77
2018-07-26T16:18:10.374Z,100470.63
2018-07-26T16:20:39.879Z,100466.38
2018-07-26T16:23:10.839Z,100472.64
2018-07-26T16:25:42.922Z,100478.57
2018-07-26T16:28:12.237Z,100476.53
2018-07-26T16:30:41.577Z,100479.24
2018-07-26T16:33:10.945Z,100481.23
2018-07-26T16:35:40.216Z,100473.47
2018-07-26T16:38:09.864Z,100472.13
2018-07-26T16:40:39.260Z,100471.41
2018-07-26T16:43:09.163Z,100476.64
2018-07-26T16:45:38.694Z,100475.89
2018-07-26T16:48:08.466Z,100482.58
2018-07-26T16:50:38.506Z,100468.56
2018-07-26T16:53:08.012Z,100479.09
2018-07-26T16:55:37.631Z,100483.81
2018-07-26T16:58:07.070Z,100486.53
2018-07-26T17:00:37.121Z,100484.23
2018-07-26T17:03:06.526Z,100488.20
2018-07-26T17:05:35.813Z,100493.47
2018-07-26T17:08:05.891Z,100496.95
2018-07-26T17:10:35.440Z,100501.48
2018-07-26T17:13:04.626Z,100501.03
2018-07-26T17:15:33.848Z,100501.69
2018-07-26T17:18:03.014Z,100510.16
2018-07-26T17:20:32.186Z,100505.39
2018-07-26T17:23:01.349Z,100510.22
2018-07-26T17:25:30.521Z,100511.67
2018-07-26T17:27:59.673Z,100516.27
2018-07-26T17:30:28.861Z,100521.34
2018-07-26T17:32:58.033Z,100520.41
2018-07-26T17:35:27.293Z,100519.46
2018-07-26T17:37:56.495Z,100518.95
2018-07-26T17:40:25.766Z,100516.42
2018-07-26T17:42:54.942Z,100508.66
2018-07-26T17:45:24.091Z,100510.06
2018-07-26T17:47:53.265Z,100517.47
2018-07-26T17:50:22.446Z,100516.26
2018-07-26T17:52:51.485Z,100520.39
2018-07-26T17:55:21.668Z,100522.89
2018-07-26T17:57:50.789Z,100518.98
2018-07-26T18:00:19.912Z,100521.62
2018-07-26T18:02:49.035Z,100525.02
2018-07-26T18:05:18.456Z,100526.97
2018-07-26T18:07:47.569Z,100527.97
2018-07-26T18:10:16.685Z,100527.82
2018-07-26T18:12:45.802Z,100537.30
2018-07-26T18:15:15.060Z,100537.92
2018-07-26T18:17:44.193Z,100537.23
2018-07-26T18:20:13.289Z,100546.84
2018-07-26T18:22:42.421Z,100539.51
2018-07-26T18:25:11.597Z,100541.81
2018-07-26T18:27:40.781Z,100542.69
2018-07-26T18:30:11.980Z,100537.30
2018-07-26T18:32:41.169Z,100541.97
2018-07-26T18:35:10.378Z,100546.92
2018-07-26T18:37:39.623Z,100545.83
2018-07-26T18:40:08.841Z,100549.92
2018-07-26T18:42:38.270Z,100554.95
2018-07-26T18:45:08.735Z,100555.99
2018-07-26T18:47:38.299Z,100563.30
2018-07-26T18:50:08.849Z,100563.04
2018-07-26T18:52:38.261Z,100566.04
2018-07-26T18:55:09.145Z,100564.10
2018-07-26T18:57:38.933Z,100569.05
2018-07-26T19:00:09.890Z,100572.43
2018-07-26T19:02:39.075Z,100577.58
2018-07-26T19:05:09.206Z,100587.64
2018-07-26T19:07:38.582Z,100586.47
2018-07-26T19:10:09.589Z,100585.81
2018-07-26T19:12:39.327Z,100588.05
2018-07-26T19:15:10.979Z,100595.53
2018-07-26T19:17:40.172Z,100596.42
2018-07-26T19:20:10.961Z,100605.70
2018-07-26T19:22:41.442Z,100608.53
2018-07-26T19:25:11.913Z,100610.09
2018-07-26T19:27:41.808Z,100604.99
2018-07-26T19:30:13.677Z,100611.73
2018-07-26T19:32:44.295Z,100615.38
2018-07-26T19:35:13.847Z,100624.48
2018-07-26T19:37:43.050Z,100618.50
2018-07-26T19:40:12.774Z,100628.02
2018-07-26T19:42:42.226Z,100629.33
2018-07-26T19:45:12.745Z,100631.32
2018-07-26T19:47:44.180Z,100625.81
2018-07-26T19:50:13.653Z,100633.45
2018-07-26T19:52:45.005Z,100634.59
2018-07-26T19:55:16.137Z,100629.83
2018-07-26T19:57:46.771Z,100635.55
2018-07-26T20:00:17.260Z,100643.48
2018-07-26T20:02:48.203Z,100633.85
2018-07-26T20:05:17.918Z,100641.34
2018-07-26T20:07:47.897Z,100638.97
2018-07-26T20:10:17.531Z,100636.96
2018-07-26T20:12:48.821Z,100637.26
2018-07-26T20:15:19.742Z,100638.30
2018-07-26T20:17:49.962Z,100634.12
2018-07-26T20:20:21.252Z,100633.78
2018-07-26T20:22:52.033Z,100639.65
2018-07-26T20:25:22.212Z,100637.13
2018-07-26T20:27:53.468Z,100632.50
2018-07-26T20:30:24.322Z,100639.81
2018-07-26T20:32:55.702Z,100632.84
2018-07-26T20:35:26.889Z,100638.62
2018-07-26T20:37:58.043Z,100632.42
2018-07-26T20:40:29.039Z,100632.97
2018-07-26T20:42:58.314Z,100633.02
2018-07-26T20:45:28.774Z,100633.03
2018-07-26T20:48:00.233Z,100640.13
2018-07-26T20:50:31.467Z,100647.91
2018-07-26T20:53:02.731Z,100652.09
2018-07-26T20:55:33.325Z,100649.63
2018-07-26T20:58:03.923Z,100652.76
2018-07-26T21:00:36.211Z,100654.90
2018-07-26T21:03:07.252Z,100655.25
2018-07-26T21:05:37.373Z,100660.59
2018-07-26T21:08:08.420Z,100655.83
2018-07-26T21:10:39.918Z,100652.91
2018-07-26T21:13:10.173Z,100661.44
2018-07-26T21:15:41.154Z,100660.89
2018-07-26T21:18:12.318Z,100660.39
2018-07-26T21:20:44.413Z,100668.72
2018-07-26T21:23:14.057Z,100667.01
2018-07-26T21:25:46.431Z,100664.96
2018-07-26T21:28:16.856Z,100673.56
2018-07-26T21:30:46.053Z,100678.16
2018-07-26T21:33:15.490Z,100676.27
2018-07-26T21:35:44.749Z,100677.30
2018-07-26T21:38:13.862Z,100671.84
2018-07-26T21:40:42.995Z,100674.84
2018-07-26T21:43:12.861Z,100673.45
2018-07-26T21:45:41.957Z,100679.48
2018-07-26T21:48:11.077Z,100684.33
2018-07-26T21:50:40.173Z,100681.84
2018-07-26T21:53:09.324Z,100684.94
2018-07-26T21:55:38.481Z,100684.08
2018-07-26T21:58:07.837Z,100680.47
2018-07-26T22:00:42.350Z,100693.11
2018-07-26T22:03:11.661Z,100686.91
2018-07-26T22:05:40.837Z,100687.94
2018-07-26T22:08:09.933Z,100690.00
2018-07-26T22:10:39.042Z,100695.39
2018-07-26T22:13:08.214Z,100695.81
2018-07-26T22:15:37.330Z,100696.25
2018-07-26T22:18:06.545Z,100696.80
2018-07-26T22:20:35.643Z,100692.40
2018-07-26T22:23:04.835Z,100694.95
2018-07-26T22:25:34.033Z,100693.50
2018-07-26T22:28:03.237Z,100692.34
2018-07-26T22:30:32.373Z,100695.98
2018-07-26T22:33:01.649Z,100692.81
2018-07-26T22:35:30.838Z,100700.30
2018-07-26T22:38:05.701Z,100702.21
2018-07-26T22:40:34.832Z,100698.97
2018-07-26T22:43:04.139Z,100694.36
2018-07-26T22:45:33.281Z,100704.11
2018-07-26T22:48:02.555Z,100699.13
2018-07-26T22:50:31.850Z,100705.23
2018-07-26T22:53:01.093Z,100703.56
2018-07-26T22:55:30.251Z,100698.97
2018-07-26T22:57:59.766Z,100702.10
2018-07-26T23:00:29.178Z,100704.69
2018-07-26T23:02:58.575Z,100705.27
2018-07-26T23:05:27.711Z,100700.96
2018-07-26T23:07:56.856Z,100702.97
2018-07-26T23:10:25.990Z,100700.81
2018-07-26T23:12:55.105Z,100695.38
2018-07-26T23:15:24.274Z,100697.11
2018-07-26T23:17:53.382Z,100703.78
2018-07-26T23:20:22.574Z,100700.35
2018-07-26T23:22:52.494Z,100703.48
2018-07-26T23:25:21.641Z,100698.23
2018-07-26T23:27:50.734Z,100699.56
2018-07-26T23:30:19.871Z,100695.58
2018-07-26T23:32:48.977Z,100695.45
2018-07-26T23:35:18.113Z,100690.72
2018-07-26T23:37:47.241Z,100692.17
2018-07-26T23:40:16.365Z,100694.16
2018-07-26T23:42:45.515Z,100692.05
2018-07-26T23:45:14.662Z,100696.36
2018-07-26T23:47:43.770Z,100690.46
2018-07-26T23:50:12.985Z,100693.51
2018-07-26T23:52:42.106Z,100695.11
2018-07-26T23:55:11.217Z,100690.66
2018-07-26T23:57:40.337Z,100693.51
